La rose des vents
Donnes mto: Semaine 29/10/07 - 04/11/07 (S 44)
Date Horaire Temp. E. Hum. E. P.atmo. Pluie Vent 1mn Direction Ensoleilleme Ev.Tr. Solaire P. de rose Temp au vent Rafales
29/10/2007 00:00 11,9 C 90 % 1017,6 hPa 0,0 l/m 3,3 km/h (1 Bft) N-NE 0,00 h 0,025 mm 0 W/m 10,3 C 11,9 C 5,1 km/h (1 Bft)
29/10/2007 01:00 11,6 C 89 % 1017,5 hPa 0,0 l/m 3,9 km/h (1 Bft) N-NO 0,00 h 0,025 mm 0 W/m 9,9 C 11,6 C 5,7 km/h (1 Bft)
29/10/2007 02:00 11,8 C 86 % 1017,3 hPa 0,0 l/m 1,4 km/h (1 Bft) N-NO 0,00 h 0,025 mm 0 W/m 9,6 C 11,8 C 2,6 km/h (1 Bft)
29/10/2007 03:00 11,9 C 81 % 1017,1 hPa 0,0 l/m 4,8 km/h (1 Bft) O-NO 0,00 h 0,025 mm 0 W/m 8,7 C 11,9 C 6,7 km/h (2 Bft)
29/10/2007 04:00 11,8 C 78 % 1017,0 hPa 0,0 l/m 2,9 km/h (1 Bft) O-NO 0,00 h 0,025 mm 0 W/m 8,1 C 11,8 C 4,1 km/h (1 Bft)
29/10/2007 05:00 11,5 C 77 % 1017,1 hPa 0,0 l/m 3,9 km/h (1 Bft) O-NO 0,00 h 0,025 mm 0 W/m 7,6 C 11,5 C 5,5 km/h (1 Bft)
29/10/2007 06:00 11,6 C 76 % 1017,1 hPa 0,0 l/m 6,4 km/h (2 Bft) O-NO 0,00 h 0,025 mm 0 W/m 7,6 C 11,6 C 8,1 km/h (2 Bft)
29/10/2007 07:00 11,8 C 75 % 1017,5 hPa 0,0 l/m 5,3 km/h (1 Bft) N-NO 0,55 h 0,025 mm 41 W/m 7,5 C 11,8 C 7,1 km/h (2 Bft)
29/10/2007 08:00 14,1 C 69 % 1017,5 hPa 0,0 l/m 2,2 km/h (1 Bft) N-NE 0,85 h 0,051 mm 156 W/m 8,5 C 14,1 C 4,7 km/h (1 Bft)
29/10/2007 09:00 15,9 C 65 % 1017,6 hPa 0,0 l/m 3,2 km/h (1 Bft) N-NE 0,77 h 0,102 mm 284 W/m 9,3 C 15,9 C 5,8 km/h (2 Bft)
29/10/2007 10:00 18,0 C 67 % 1017,1 hPa 0,0 l/m 6,2 km/h (2 Bft) NE 1,00 h 0,178 mm 417 W/m 11,8 C 18,0 C 9,8 km/h (2 Bft)
29/10/2007 11:00 18,7 C 64 % 1016,5 hPa 0,0 l/m 6,4 km/h (2 Bft) E-NE 1,00 h 0,254 mm 498 W/m 11,7 C 18,7 C 10,7 km/h (2 Bft)
29/10/2007 12:00 18,9 C 62 % 1015,6 hPa 0,0 l/m 9,6 km/h (2 Bft) E-NE 1,00 h 0,305 mm 494 W/m 11,5 C 18,9 C 15,5 km/h (3 Bft)
29/10/2007 13:00 18,7 C 67 % 1015,0 hPa 0,0 l/m 10,6 km/h (2 Bft) E 1,00 h 0,330 mm 467 W/m 12,4 C 18,7 C 15,5 km/h (3 Bft)
29/10/2007 14:00 18,0 C 71 % 1014,4 hPa 0,0 l/m 9,5 km/h (2 Bft) E-NE 0,45 h 0,305 mm 245 W/m 12,7 C 18,0 C 13,7 km/h (3 Bft)
29/10/2007 15:00 17,3 C 75 % 1014,2 hPa 0,0 l/m 5,8 km/h (2 Bft) E 0,33 h 0,178 mm 186 W/m 12,8 C 17,3 C 10,8 km/h (2 Bft)
29/10/2007 16:00 16,2 C 80 % 1014,0 hPa 0,0 l/m 5,6 km/h (1 Bft) E 0,00 h 0,127 mm 47 W/m 12,7 C 16,2 C 8,6 km/h (2 Bft)
29/10/2007 17:00 15,7 C 83 % 1014,5 hPa 0,0 l/m 1,5 km/h (1 Bft) E 0,00 h 0,051 mm 9 W/m 12,8 C 15,7 C 3,0 km/h (1 Bft)
29/10/2007 18:00 15,2 C 85 % 1014,1 hPa 0,0 l/m 1,1 km/h (1 Bft) N-NO 0,00 h 0,000 mm 0 W/m 12,7 C 15,2 C 2,7 km/h (1 Bft)
29/10/2007 19:00 14,8 C 86 % 1013,4 hPa 0,0 l/m 2,7 km/h (1 Bft) N-NO 0,00 h 0,025 mm 0 W/m 12,5 C 14,8 C 4,7 km/h (1 Bft)
29/10/2007 20:00 14,6 C 86 % 1012,8 hPa 0,0 l/m 2,0 km/h (1 Bft) N-NO 0,00 h 0,025 mm 0 W/m 12,2 C 14,6 C 2,4 km/h (1 Bft)
29/10/2007 21:00 14,8 C 82 % 1012,6 hPa 0,0 l/m 5,4 km/h (1 Bft) O 0,00 h 0,025 mm 0 W/m 11,8 C 14,8 C 7,8 km/h (2 Bft)
29/10/2007 22:00 14,7 C 82 % 1012,1 hPa 0,0 l/m 5,8 km/h (2 Bft) O 0,00 h 0,025 mm 0 W/m 11,6 C 14,7 C 8,5 km/h (2 Bft)
29/10/2007 23:00 14,7 C 79 % 1011,4 hPa 0,0 l/m 7,5 km/h (2 Bft) O 0,00 h 0,025 mm 0 W/m 11,1 C 14,7 C 10,4 km/h (2 Bft)
30/10/2007 00:00 14,7 C 77 % 1010,8 hPa 0,0 l/m 6,9 km/h (2 Bft) O 0,00 h 0,025 mm 0 W/m 10,8 C 14,7 C 9,1 km/h (2 Bft)
30/10/2007 01:00 15,1 C 74 % 1010,2 hPa 0,0 l/m 6,4 km/h (2 Bft) O 0,00 h 0,051 mm 0 W/m 10,5 C 15,1 C 8,4 km/h (2 Bft)
30/10/2007 02:00 15,1 C 72 % 1009,6 hPa 0,0 l/m 4,7 km/h (1 Bft) O-NO 0,00 h 0,051 mm 0 W/m 10,2 C 15,1 C 6,2 km/h (2 Bft)
30/10/2007 03:00 14,1 C 76 % 1008,8 hPa 0,0 l/m 2,1 km/h (1 Bft) O-NO 0,00 h 0,051 mm 0 W/m 9,9 C 14,1 C 3,2 km/h (1 Bft)
30/10/2007 04:00 13,3 C 78 % 1008,3 hPa 0,0 l/m 1,8 km/h (1 Bft) O-NO 0,00 h 0,025 mm 0 W/m 9,6 C 13,3 C 3,8 km/h (1 Bft)
30/10/2007 05:00 13,2 C 79 % 1007,8 hPa 0,0 l/m 3,8 km/h (1 Bft) O-NO 0,00 h 0,025 mm 0 W/m 9,6 C 13,2 C 5,9 km/h (2 Bft)
30/10/2007 06:00 13,8 C 75 % 1007,5 hPa 0,0 l/m 7,0 km/h (2 Bft) O-NO 0,00 h 0,025 mm 0 W/m 9,4 C 13,8 C 9,1 km/h (2 Bft)
30/10/2007 07:00 13,6 C 75 % 1007,3 hPa 0,0 l/m 3,5 km/h (1 Bft) O 0,00 h 0,025 mm 16 W/m 9,2 C 13,6 C 5,3 km/h (1 Bft)
30/10/2007 08:00 14,0 C 75 % 1007,4 hPa 0,0 l/m 0,0 km/h (0 Bft) N 0,00 h 0,025 mm 84 W/m 9,7 C 14,0 C 0,1 km/h (0 Bft)
30/10/2007 09:00 15,2 C 72 % 1007,3 hPa 0,0 l/m 1,0 km/h (0 Bft) O-NO 0,18 h 0,051 mm 157 W/m 10,2 C 15,2 C 1,7 km/h (1 Bft)
30/10/2007 10:00 16,6 C 66 % 1007,2 hPa 0,0 l/m 3,9 km/h (1 Bft) S-SO 0,52 h 0,102 mm 261 W/m 10,1 C 16,6 C 6,2 km/h (2 Bft)
30/10/2007 11:00 17,1 C 64 % 1006,9 hPa 0,0 l/m 6,6 km/h (2 Bft) S-SO 0,08 h 0,178 mm 266 W/m 10,3 C 17,1 C 9,2 km/h (2 Bft)
30/10/2007 12:00 17,5 C 64 % 1006,3 hPa 0,0 l/m 7,3 km/h (2 Bft) S 0,05 h 0,178 mm 246 W/m 10,6 C 17,5 C 11,0 km/h (2 Bft)
30/10/2007 13:00 18,2 C 64 % 1005,7 hPa 0,0 l/m 8,6 km/h (2 Bft) S 1,00 h 0,178 mm 383 W/m 11,2 C 18,2 C 12,9 km/h (3 Bft)
30/10/2007 14:00 17,9 C 64 % 1005,2 hPa 0,0 l/m 11,4 km/h (2 Bft) S 0,03 h 0,254 mm 139 W/m 11,0 C 17,9 C 15,7 km/h (3 Bft)
30/10/2007 15:00 16,4 C 76 % 1005,1 hPa 0,0 l/m 6,6 km/h (2 Bft) S 0,00 h 0,127 mm 28 W/m 12,1 C 16,4 C 9,3 km/h (2 Bft)
30/10/2007 16:00 15,6 C 80 % 1005,1 hPa 0,0 l/m 1,1 km/h (1 Bft) S 0,00 h 0,051 mm 28 W/m 12,2 C 15,6 C 2,2 km/h (1 Bft)
30/10/2007 17:00 14,9 C 81 % 1005,3 hPa 0,0 l/m 0,6 km/h (0 Bft) S 0,03 h 0,025 mm 12 W/m 11,7 C 14,9 C 2,1 km/h (1 Bft)
30/10/2007 18:00 13,9 C 84 % 1005,7 hPa 0,0 l/m 0,5 km/h (0 Bft) SE 0,00 h 0,000 mm 0 W/m 11,2 C 13,9 C 1,4 km/h (1 Bft)
30/10/2007 19:00 13,8 C 86 % 1006,3 hPa 0,0 l/m 1,8 km/h (1 Bft) O 0,00 h 0,025 mm 0 W/m 11,6 C 13,8 C 3,4 km/h (1 Bft)
30/10/2007 20:00 13,9 C 86 % 1006,5 hPa 0,0 l/m 5,1 km/h (1 Bft) O 0,00 h 0,025 mm 0 W/m 11,5 C 13,9 C 7,5 km/h (2 Bft)
30/10/2007 21:00 14,0 C 84 % 1006,9 hPa 0,0 l/m 8,0 km/h (2 Bft) O-NO 0,00 h 0,025 mm 0 W/m 11,3 C 14,0 C 10,8 km/h (2 Bft)
30/10/2007 22:00 14,1 C 82 % 1007,0 hPa 0,0 l/m 5,4 km/h (1 Bft) O 0,00 h 0,025 mm 0 W/m 11,1 C 14,1 C 7,5 km/h (2 Bft)
30/10/2007 23:00 13,9 C 82 % 1007,2 hPa 0,0 l/m 5,7 km/h (1 Bft) O-NO 0,00 h 0,025 mm 0 W/m 10,9 C 13,9 C 7,9 km/h (2 Bft)
31/10/2007 00:00 13,4 C 85 % 1007,6 hPa 0,2 l/m 1,3 km/h (1 Bft) N-NO 0,00 h 0,025 mm 0 W/m 11,0 C 13,4 C 2,2 km/h (1 Bft)
31/10/2007 01:00 13,1 C 87 % 1007,7 hPa 0,0 l/m 0,0 km/h (0 Bft) N-NO 0,00 h 0,025 mm 0 W/m 11,0 C 13,1 C 0,1 km/h (0 Bft)
31/10/2007 02:00 12,8 C 88 % 1008,3 hPa 0,0 l/m 0,7 km/h (0 Bft) N-NO 0,00 h 0,025 mm 0 W/m 10,9 C 12,8 C 1,5 km/h (1 Bft)
31/10/2007 03:00 12,9 C 89 % 1008,5 hPa 0,2 l/m 3,7 km/h (1 Bft) O 0,00 h 0,025 mm 0 W/m 11,1 C 12,9 C 5,0 km/h (1 Bft)
31/10/2007 04:00 12,9 C 89 % 1008,7 hPa 0,0 l/m 6,9 km/h (2 Bft) O 0,00 h 0,025 mm 0 W/m 11,2 C 12,9 C 9,3 km/h (2 Bft)
31/10/2007 05:00 12,8 C 89 % 1009,0 hPa 0,0 l/m 8,3 km/h (2 Bft) O-NO 0,00 h 0,025 mm 0 W/m 11,1 C 12,8 C 11,3 km/h (2 Bft)
31/10/2007 06:00 13,0 C 83 % 1009,2 hPa 0,0 l/m 4,3 km/h (1 Bft) O-NO 0,00 h 0,025 mm 0 W/m 10,2 C 13,0 C 6,5 km/h (2 Bft)
31/10/2007 07:00 12,9 C 80 % 1010,0 hPa 0,0 l/m 2,7 km/h (1 Bft) O-SO 0,05 h 0,025 mm 27 W/m 9,6 C 12,9 C 4,1 km/h (1 Bft)
31/10/2007 08:00 13,4 C 74 % 1010,8 hPa 0,0 l/m 3,0 km/h (1 Bft) O-SO 0,00 h 0,025 mm 67 W/m 8,9 C 13,4 C 4,4 km/h (1 Bft)
31/10/2007 09:00 15,7 C 66 % 1011,3 hPa 0,0 l/m 2,6 km/h (1 Bft) O-NO 0,07 h 0,051 mm 174 W/m 9,4 C 15,7 C 4,3 km/h (1 Bft)
31/10/2007 10:00 16,6 C 65 % 1012,0 hPa 0,0 l/m 0,4 km/h (0 Bft) O 0,00 h 0,102 mm 127 W/m 9,9 C 16,6 C 1,2 km/h (1 Bft)
31/10/2007 11:00 16,5 C 71 % 1012,6 hPa 0,0 l/m 1,4 km/h (1 Bft) SO 0,00 h 0,076 mm 91 W/m 11,2 C 16,5 C 2,8 km/h (1 Bft)
31/10/2007 12:00 16,3 C 68 % 1012,6 hPa 0,0 l/m 3,5 km/h (1 Bft) O 0,00 h 0,051 mm 103 W/m 10,4 C 16,3 C 5,6 km/h (1 Bft)
31/10/2007 13:00 16,7 C 67 % 1012,7 hPa 0,0 l/m 1,8 km/h (1 Bft) O-SO 0,00 h 0,076 mm 100 W/m 10,6 C 16,7 C 3,2 km/h (1 Bft)
31/10/2007 14:00 16,9 C 71 % 1013,1 hPa 0,0 l/m 0,0 km/h (0 Bft) N 0,00 h 0,076 mm 113 W/m 11,6 C 16,9 C 0,1 km/h (0 Bft)
31/10/2007 15:00 16,9 C 73 % 1013,5 hPa 0,0 l/m 0,2 km/h (0 Bft) O 0,00 h 0,076 mm 79 W/m 12,0 C 16,9 C 0,6 km/h (0 Bft)
31/10/2007 16:00 16,3 C 75 % 1014,0 hPa 0,0 l/m 0,4 km/h (0 Bft) S-SO 0,00 h 0,051 mm 31 W/m 11,9 C 16,3 C 0,9 km/h (0 Bft)
31/10/2007 17:00 15,4 C 78 % 1014,9 hPa 0,0 l/m 0,0 km/h (0 Bft) N 0,00 h 0,025 mm 5 W/m 11,5 C 15,4 C 0,1 km/h (0 Bft)
31/10/2007 18:00 15,2 C 78 % 1015,8 hPa 0,0 l/m 2,5 km/h (1 Bft) O 0,00 h 0,000 mm 0 W/m 11,4 C 15,2 C 3,5 km/h (1 Bft)
31/10/2007 19:00 14,9 C 72 % 1016,4 hPa 0,0 l/m 2,4 km/h (1 Bft) O 0,00 h 0,025 mm 0 W/m 9,8 C 14,9 C 3,7 km/h (1 Bft)
31/10/2007 20:00 14,1 C 68 % 1016,6 hPa 0,0 l/m 7,5 km/h (2 Bft) O-NO 0,00 h 0,025 mm 0 W/m 8,2 C 14,1 C 9,9 km/h (2 Bft)
31/10/2007 21:00 13,6 C 64 % 1017,2 hPa 0,0 l/m 8,0 km/h (2 Bft) O-NO 0,00 h 0,051 mm 0 W/m 7,0 C 13,6 C 10,0 km/h (2 Bft)
31/10/2007 22:00 13,7 C 61 % 1017,3 hPa 0,0 l/m 9,8 km/h (2 Bft) O-NO 0,00 h 0,051 mm 0 W/m 6,4 C 13,7 C 13,1 km/h (3 Bft)
31/10/2007 23:00 13,3 C 60 % 1017,5 hPa 0,0 l/m 5,2 km/h (1 Bft) O-NO 0,00 h 0,127 mm 0 W/m 5,7 C 13,3 C 7,9 km/h (2 Bft)
01/11/2007 00:00 13,3 C 58 % 1017,8 hPa 0,0 l/m 2,0 km/h (1 Bft) O-NO 0,00 h 0,000 mm 0 W/m 5,2 C 13,3 C 2,9 km/h (1 Bft)
01/11/2007 01:00 13,1 C 57 % 1018,1 hPa 0,0 l/m 4,1 km/h (1 Bft) O-NO 0,00 h 0,051 mm 0 W/m 4,8 C 13,1 C 5,7 km/h (1 Bft)
01/11/2007 02:00 12,5 C 59 % 1018,4 hPa 0,0 l/m 3,5 km/h (1 Bft) O-SO 0,00 h 0,051 mm 0 W/m 4,7 C 12,5 C 5,0 km/h (1 Bft)
01/11/2007 03:00 12,3 C 59 % 1018,4 hPa 0,0 l/m 5,1 km/h (1 Bft) O-SO 0,00 h 0,051 mm 0 W/m 4,4 C 12,3 C 6,9 km/h (2 Bft)
01/11/2007 04:00 11,4 C 62 % 1018,7 hPa 0,0 l/m 8,4 km/h (2 Bft) O-NO 0,00 h 0,051 mm 0 W/m 4,4 C 11,4 C 11,6 km/h (2 Bft)
01/11/2007 05:00 12,0 C 64 % 1018,8 hPa 0,0 l/m 9,3 km/h (2 Bft) O 0,00 h 0,051 mm 0 W/m 5,3 C 12,0 C 12,6 km/h (3 Bft)
01/11/2007 06:00 12,2 C 67 % 1018,9 hPa 0,0 l/m 9,8 km/h (2 Bft) O 0,00 h 0,051 mm 0 W/m 6,3 C 12,2 C 13,4 km/h (3 Bft)
01/11/2007 07:00 12,2 C 65 % 1019,4 hPa 0,0 l/m 8,1 km/h (2 Bft) O 0,70 h 0,051 mm 40 W/m 5,7 C 12,2 C 10,8 km/h (2 Bft)
01/11/2007 08:00 14,3 C 61 % 1019,9 hPa 0,0 l/m 4,1 km/h (1 Bft) O 1,00 h 0,051 mm 173 W/m 6,8 C 14,3 C 6,8 km/h (2 Bft)
01/11/2007 09:00 16,4 C 59 % 1020,1 hPa 0,0 l/m 7,7 km/h (2 Bft) SO 1,00 h 0,127 mm 316 W/m 8,4 C 16,4 C 10,7 km/h (2 Bft)
01/11/2007 10:00 17,3 C 57 % 1020,3 hPa 0,0 l/m 8,7 km/h (2 Bft) SO 1,00 h 0,229 mm 429 W/m 8,7 C 17,3 C 12,4 km/h (3 Bft)
01/11/2007 11:00 18,8 C 53 % 1020,5 hPa 0,0 l/m 6,3 km/h (2 Bft) SO 1,00 h 0,279 mm 492 W/m 9,1 C 18,8 C 9,8 km/h (2 Bft)
01/11/2007 12:00 19,2 C 56 % 1020,2 hPa 0,0 l/m 5,1 km/h (1 Bft) S 1,00 h 0,330 mm 505 W/m 10,1 C 19,2 C 8,4 km/h (2 Bft)
01/11/2007 13:00 19,7 C 47 % 1019,7 hPa 0,0 l/m 6,8 km/h (2 Bft) S 1,00 h 0,330 mm 462 W/m 8,1 C 19,7 C 10,5 km/h (2 Bft)
01/11/2007 14:00 19,4 C 52 % 1019,3 hPa 0,0 l/m 10,0 km/h (2 Bft) S-SE 1,00 h 0,330 mm 371 W/m 9,4 C 19,4 C 15,1 km/h (3 Bft)
01/11/2007 15:00 18,6 C 51 % 1019,6 hPa 0,0 l/m 6,1 km/h (2 Bft) S-SE 1,00 h 0,279 mm 238 W/m 8,2 C 18,6 C 9,6 km/h (2 Bft)
01/11/2007 16:00 17,3 C 50 % 1020,1 hPa 0,0 l/m 1,9 km/h (1 Bft) SE 0,37 h 0,178 mm 69 W/m 6,9 C 17,3 C 3,7 km/h (1 Bft)
01/11/2007 17:00 15,5 C 57 % 1020,5 hPa 0,0 l/m 4,4 km/h (1 Bft) O 0,05 h 0,051 mm 11 W/m 6,9 C 15,5 C 5,5 km/h (1 Bft)
01/11/2007 18:00 14,5 C 59 % 1020,9 hPa 0,0 l/m 8,6 km/h (2 Bft) O-NO 0,00 h 0,025 mm 0 W/m 6,6 C 14,5 C 11,4 km/h (2 Bft)
01/11/2007 19:00 13,8 C 62 % 1021,3 hPa 0,0 l/m 13,8 km/h (3 Bft) O-NO 0,00 h 0,076 mm 0 W/m 6,8 C 13,8 C 17,9 km/h (3 Bft)
01/11/2007 20:00 13,5 C 64 % 1021,4 hPa 0,0 l/m 13,4 km/h (3 Bft) O-NO 0,00 h 0,076 mm 0 W/m 6,8 C 13,5 C 17,7 km/h (3 Bft)
01/11/2007 21:00 12,6 C 67 % 1022,1 hPa 0,0 l/m 3,7 km/h (1 Bft) E-SE 0,00 h 0,076 mm 0 W/m 6,6 C 12,6 C 5,2 km/h (1 Bft)
01/11/2007 22:00 12,5 C 68 % 1022,6 hPa 0,0 l/m 6,3 km/h (2 Bft) O 0,00 h 0,051 mm 0 W/m 6,6 C 12,5 C 7,7 km/h (2 Bft)
01/11/2007 23:00 12,6 C 65 % 1022,5 hPa 0,0 l/m 6,9 km/h (2 Bft) O-NO 0,00 h 0,051 mm 0 W/m 6,1 C 12,6 C 8,9 km/h (2 Bft)
02/11/2007 00:00 11,7 C 64 % 1022,2 hPa 0,0 l/m 9,3 km/h (2 Bft) O-NO 0,00 h 0,051 mm 0 W/m 5,2 C 11,7 C 13,0 km/h (3 Bft)
02/11/2007 01:00 11,5 C 61 % 1022,3 hPa 0,0 l/m 9,5 km/h (2 Bft) O-NO 0,00 h 0,051 mm 0 W/m 4,3 C 11,5 C 12,6 km/h (3 Bft)
02/11/2007 02:00 11,5 C 59 % 1022,3 hPa 0,0 l/m 11,8 km/h (2 Bft) O-NO 0,00 h 0,051 mm 0 W/m 3,7 C 11,5 C 15,6 km/h (3 Bft)
02/11/2007 03:00 12,1 C 53 % 1022,3 hPa 0,0 l/m 9,1 km/h (2 Bft) O-NO 0,00 h 0,076 mm 0 W/m 2,8 C 12,1 C 11,8 km/h (2 Bft)
02/11/2007 04:00 11,7 C 54 % 1022,3 hPa 0,0 l/m 10,1 km/h (2 Bft) O-NO 0,00 h 0,076 mm 0 W/m 2,7 C 11,7 C 12,9 km/h (3 Bft)
02/11/2007 05:00 11,3 C 53 % 1022,4 hPa 0,0 l/m 7,3 km/h (2 Bft) O-NO 0,00 h 0,076 mm 0 W/m 2,1 C 11,3 C 10,1 km/h (2 Bft)
02/11/2007 06:00 10,3 C 57 % 1022,6 hPa 0,0 l/m 4,5 km/h (1 Bft) O-NO 0,00 h 0,076 mm 0 W/m 2,1 C 9,9 C 6,7 km/h (2 Bft)
02/11/2007 07:00 10,9 C 56 % 1023,0 hPa 0,0 l/m 2,5 km/h (1 Bft) NO 0,68 h 0,025 mm 39 W/m 2,5 C 10,8 C 3,9 km/h (1 Bft)
02/11/2007 08:00 13,8 C 49 % 1023,7 hPa 0,0 l/m 0,0 km/h (0 Bft) N 1,00 h 0,025 mm 170 W/m 3,2 C 13,8 C 0,4 km/h (0 Bft)
02/11/2007 09:00 15,8 C 46 % 1024,1 hPa 0,0 l/m 0,7 km/h (0 Bft) N 1,00 h 0,102 mm 313 W/m 4,2 C 15,8 C 1,9 km/h (1 Bft)
02/11/2007 10:00 17,8 C 41 % 1024,1 hPa 0,0 l/m 1,8 km/h (1 Bft) O 1,00 h 0,178 mm 425 W/m 4,4 C 17,8 C 3,8 km/h (1 Bft)
02/11/2007 11:00 19,5 C 38 % 1023,7 hPa 0,0 l/m 4,0 km/h (1 Bft) S-SO 1,00 h 0,254 mm 494 W/m 4,9 C 19,5 C 6,9 km/h (2 Bft)
02/11/2007 12:00 19,9 C 41 % 1023,1 hPa 0,0 l/m 7,0 km/h (2 Bft) S-SE 1,00 h 0,330 mm 501 W/m 6,3 C 19,9 C 11,2 km/h (2 Bft)
02/11/2007 13:00 20,0 C 39 % 1022,5 hPa 0,0 l/m 13,0 km/h (3 Bft) S-SE 1,00 h 0,356 mm 460 W/m 5,7 C 20,0 C 18,1 km/h (3 Bft)
02/11/2007 14:00 19,0 C 40 % 1022,3 hPa 0,0 l/m 10,7 km/h (2 Bft) S-SE 1,00 h 0,381 mm 368 W/m 4,9 C 19,0 C 15,6 km/h (3 Bft)
02/11/2007 15:00 18,6 C 41 % 1022,3 hPa 0,0 l/m 5,4 km/h (1 Bft) S-SE 1,00 h 0,305 mm 238 W/m 5,2 C 18,6 C 7,9 km/h (2 Bft)
02/11/2007 16:00 17,8 C 47 % 1022,1 hPa 0,0 l/m 4,1 km/h (1 Bft) S 0,80 h 0,178 mm 90 W/m 6,3 C 17,8 C 6,2 km/h (2 Bft)
02/11/2007 17:00 15,3 C 53 % 1021,9 hPa 0,0 l/m 4,9 km/h (1 Bft) S 0,00 h 0,076 mm 8 W/m 5,8 C 15,3 C 6,1 km/h (2 Bft)
02/11/2007 18:00 14,5 C 56 % 1022,5 hPa 0,0 l/m 6,8 km/h (2 Bft) O 0,00 h 0,051 mm 0 W/m 5,9 C 14,5 C 9,0 km/h (2 Bft)
02/11/2007 19:00 13,7 C 58 % 1022,2 hPa 0,0 l/m 6,8 km/h (2 Bft) O 0,00 h 0,076 mm 0 W/m 5,6 C 13,7 C 9,0 km/h (2 Bft)
02/11/2007 20:00 13,0 C 60 % 1021,9 hPa 0,0 l/m 4,7 km/h (1 Bft) O-NO 0,00 h 0,051 mm 0 W/m 5,3 C 13,0 C 6,9 km/h (2 Bft)
02/11/2007 21:00 12,4 C 61 % 1022,3 hPa 0,0 l/m 1,2 km/h (1 Bft) N-NO 0,00 h 0,051 mm 0 W/m 5,0 C 12,4 C 2,7 km/h (1 Bft)
02/11/2007 22:00 12,1 C 62 % 1022,5 hPa 0,0 l/m 3,1 km/h (1 Bft) N-NO 0,00 h 0,025 mm 0 W/m 5,1 C 12,1 C 5,4 km/h (1 Bft)
02/11/2007 23:00 12,9 C 59 % 1022,4 hPa 0,0 l/m 4,2 km/h (1 Bft) O 0,00 h 0,051 mm 0 W/m 5,0 C 12,9 C 5,9 km/h (2 Bft)
03/11/2007 00:00 12,8 C 58 % 1022,2 hPa 0,0 l/m 3,2 km/h (1 Bft) O-NO 0,00 h 0,051 mm 0 W/m 4,7 C 12,8 C 5,3 km/h (1 Bft)
03/11/2007 01:00 12,7 C 58 % 1021,7 hPa 0,0 l/m 4,4 km/h (1 Bft) O-NO 0,00 h 0,051 mm 0 W/m 4,6 C 12,7 C 6,6 km/h (2 Bft)
03/11/2007 02:00 12,7 C 56 % 1021,7 hPa 0,0 l/m 4,1 km/h (1 Bft) O-NO 0,00 h 0,051 mm 0 W/m 4,2 C 12,7 C 6,1 km/h (2 Bft)
03/11/2007 03:00 12,4 C 56 % 1021,7 hPa 0,0 l/m 3,8 km/h (1 Bft) NO 0,00 h 0,051 mm 0 W/m 4,0 C 12,4 C 5,5 km/h (1 Bft)
03/11/2007 04:00 12,1 C 57 % 1021,5 hPa 0,0 l/m 4,8 km/h (1 Bft) NO 0,00 h 0,051 mm 0 W/m 3,7 C 12,1 C 7,2 km/h (2 Bft)
03/11/2007 05:00 12,7 C 53 % 1021,4 hPa 0,0 l/m 6,7 km/h (2 Bft) NO 0,00 h 0,051 mm 0 W/m 3,3 C 12,7 C 9,9 km/h (2 Bft)
03/11/2007 06:00 13,0 C 49 % 1021,4 hPa 0,0 l/m 4,6 km/h (1 Bft) NO 0,00 h 0,076 mm 0 W/m 2,6 C 13,0 C 6,9 km/h (2 Bft)
03/11/2007 07:00 13,2 C 49 % 1021,6 hPa 0,0 l/m 3,9 km/h (1 Bft) NO 0,67 h 0,025 mm 39 W/m 2,6 C 13,2 C 6,0 km/h (2 Bft)
03/11/2007 08:00 14,5 C 47 % 1022,1 hPa 0,0 l/m 2,5 km/h (1 Bft) NO 1,00 h 0,051 mm 168 W/m 3,3 C 14,5 C 3,9 km/h (1 Bft)
03/11/2007 09:00 17,2 C 42 % 1022,2 hPa 0,0 l/m 0,9 km/h (0 Bft) NO 1,00 h 0,102 mm 310 W/m 4,1 C 17,2 C 2,0 km/h (1 Bft)
03/11/2007 10:00 19,6 C 34 % 1021,8 hPa 0,0 l/m 3,3 km/h (1 Bft) E-SE 1,00 h 0,178 mm 424 W/m 3,5 C 19,6 C 5,9 km/h (2 Bft)
03/11/2007 11:00 20,2 C 34 % 1021,5 hPa 0,0 l/m 5,0 km/h (1 Bft) SE 1,00 h 0,279 mm 490 W/m 3,7 C 20,2 C 9,0 km/h (2 Bft)
03/11/2007 12:00 19,9 C 36 % 1021,0 hPa 0,0 l/m 6,0 km/h (2 Bft) E-SE 1,00 h 0,330 mm 501 W/m 4,4 C 19,9 C 10,2 km/h (2 Bft)
03/11/2007 13:00 19,8 C 41 % 1020,4 hPa 0,0 l/m 5,7 km/h (1 Bft) E 1,00 h 0,356 mm 457 W/m 6,0 C 19,8 C 9,8 km/h (2 Bft)
03/11/2007 14:00 19,4 C 43 % 1019,9 hPa 0,0 l/m 4,8 km/h (1 Bft) E-SE 1,00 h 0,330 mm 365 W/m 6,5 C 19,4 C 8,2 km/h (2 Bft)
03/11/2007 15:00 18,7 C 48 % 1019,4 hPa 0,0 l/m 2,5 km/h (1 Bft) E-SE 1,00 h 0,254 mm 233 W/m 7,3 C 18,7 C 4,9 km/h (1 Bft)
03/11/2007 16:00 17,5 C 50 % 1019,0 hPa 0,0 l/m 0,7 km/h (0 Bft) E-SE 0,83 h 0,152 mm 88 W/m 6,9 C 17,5 C 2,1 km/h (1 Bft)
03/11/2007 17:00 15,3 C 57 % 1018,8 hPa 0,0 l/m 0,1 km/h (0 Bft) E-SE 0,03 h 0,051 mm 10 W/m 6,9 C 15,3 C 0,3 km/h (0 Bft)
03/11/2007 18:00 14,1 C 61 % 1018,7 hPa 0,0 l/m 1,7 km/h (1 Bft) SE 0,00 h 0,000 mm 0 W/m 6,6 C 14,1 C 2,5 km/h (1 Bft)
03/11/2007 19:00 14,1 C 60 % 1018,6 hPa 0,0 l/m 3,0 km/h (1 Bft) SO 0,00 h 0,051 mm 0 W/m 6,3 C 14,1 C 4,5 km/h (1 Bft)
03/11/2007 20:00 13,3 C 62 % 1018,5 hPa 0,0 l/m 5,2 km/h (1 Bft) O-NO 0,00 h 0,051 mm 0 W/m 6,1 C 13,3 C 6,6 km/h (2 Bft)
03/11/2007 21:00 12,8 C 63 % 1018,3 hPa 0,0 l/m 7,1 km/h (2 Bft) O-NO 0,00 h 0,051 mm 0 W/m 5,8 C 12,8 C 9,3 km/h (2 Bft)
03/11/2007 22:00 12,0 C 63 % 1017,9 hPa 0,0 l/m 3,1 km/h (1 Bft) O-NO 0,00 h 0,051 mm 0 W/m 5,1 C 12,0 C 5,4 km/h (1 Bft)
03/11/2007 23:00 11,3 C 65 % 1017,8 hPa 0,0 l/m 3,1 km/h (1 Bft) NO 0,00 h 0,051 mm 0 W/m 4,9 C 11,3 C 4,5 km/h (1 Bft)
04/11/2007 00:00 12,3 C 60 % 1017,4 hPa 0,0 l/m 3,4 km/h (1 Bft) NO 0,00 h 0,051 mm 0 W/m 4,7 C 12,3 C 5,5 km/h (1 Bft)
04/11/2007 01:00 11,9 C 59 % 1017,1 hPa 0,0 l/m 6,9 km/h (2 Bft) O-NO 0,00 h 0,051 mm 0 W/m 4,2 C 11,9 C 10,1 km/h (2 Bft)
04/11/2007 02:00 11,8 C 59 % 1016,8 hPa 0,0 l/m 7,8 km/h (2 Bft) O-NO 0,00 h 0,051 mm 0 W/m 4,0 C 11,8 C 10,6 km/h (2 Bft)
04/11/2007 03:00 11,8 C 58 % 1016,1 hPa 0,0 l/m 5,3 km/h (1 Bft) NO 0,00 h 0,051 mm 0 W/m 3,8 C 11,8 C 8,0 km/h (2 Bft)
04/11/2007 04:00 11,0 C 61 % 1015,7 hPa 0,0 l/m 4,1 km/h (1 Bft) N-NO 0,00 h 0,051 mm 0 W/m 3,6 C 11,0 C 6,1 km/h (2 Bft)
04/11/2007 05:00 11,2 C 61 % 1015,5 hPa 0,0 l/m 5,8 km/h (2 Bft) NO 0,00 h 0,051 mm 0 W/m 3,9 C 11,2 C 7,9 km/h (2 Bft)
04/11/2007 06:00 11,6 C 59 % 1015,4 hPa 0,0 l/m 5,1 km/h (1 Bft) NO 0,00 h 0,051 mm 0 W/m 3,8 C 11,6 C 7,3 km/h (2 Bft)
04/11/2007 07:00 12,0 C 58 % 1015,5 hPa 0,0 l/m 3,8 km/h (1 Bft) NO 0,65 h 0,025 mm 36 W/m 4,0 C 12,0 C 5,7 km/h (1 Bft)
04/11/2007 08:00 14,3 C 52 % 1015,7 hPa 0,0 l/m 0,5 km/h (0 Bft) NO 1,00 h 0,051 mm 163 W/m 4,5 C 14,3 C 1,3 km/h (1 Bft)
04/11/2007 09:00 16,4 C 49 % 1015,9 hPa 0,0 l/m 1,7 km/h (1 Bft) N 1,00 h 0,102 mm 303 W/m 5,5 C 16,4 C 3,1 km/h (1 Bft)
04/11/2007 10:00 17,6 C 52 % 1016,1 hPa 0,0 l/m 5,7 km/h (1 Bft) E-NE 1,00 h 0,178 mm 412 W/m 7,6 C 17,6 C 8,5 km/h (2 Bft)
04/11/2007 11:00 18,4 C 53 % 1016,1 hPa 0,0 l/m 5,7 km/h (1 Bft) E 1,00 h 0,279 mm 474 W/m 8,8 C 18,4 C 9,4 km/h (2 Bft)
04/11/2007 12:00 18,5 C 62 % 1015,8 hPa 0,0 l/m 6,1 km/h (2 Bft) E 1,00 h 0,305 mm 477 W/m 11,1 C 18,5 C 10,1 km/h (2 Bft)
04/11/2007 13:00 18,4 C 63 % 1015,3 hPa 0,0 l/m 7,3 km/h (2 Bft) E 1,00 h 0,305 mm 437 W/m 11,3 C 18,4 C 11,0 km/h (2 Bft)
04/11/2007 14:00 18,2 C 66 % 1015,1 hPa 0,0 l/m 6,2 km/h (2 Bft) E 1,00 h 0,279 mm 351 W/m 11,7 C 18,2 C 10,3 km/h (2 Bft)
04/11/2007 15:00 17,5 C 71 % 1015,1 hPa 0,0 l/m 3,9 km/h (1 Bft) E-SE 1,00 h 0,229 mm 228 W/m 12,2 C 17,5 C 6,9 km/h (2 Bft)
04/11/2007 16:00 16,6 C 74 % 1015,3 hPa 0,0 l/m 0,6 km/h (0 Bft) E-SE 0,65 h 0,152 mm 89 W/m 12,0 C 16,6 C 2,1 km/h (1 Bft)
04/11/2007 17:00 14,4 C 82 % 1015,7 hPa 0,0 l/m 0,7 km/h (0 Bft) E-SE 0,05 h 0,051 mm 10 W/m 11,4 C 14,4 C 1,5 km/h (1 Bft)
04/11/2007 18:00 13,3 C 86 % 1016,5 hPa 0,0 l/m 0,1 km/h (0 Bft) E-SE 0,00 h 0,000 mm 0 W/m 11,0 C 13,3 C 0,5 km/h (0 Bft)
04/11/2007 19:00 12,9 C 88 % 1016,8 hPa 0,0 l/m 1,3 km/h (1 Bft) E-SE 0,00 h 0,025 mm 0 W/m 10,9 C 12,9 C 2,7 km/h (1 Bft)
04/11/2007 20:00 12,7 C 89 % 1017,0 hPa 0,0 l/m 0,8 km/h (0 Bft) E-SE 0,00 h 0,025 mm 0 W/m 10,9 C 12,7 C 1,6 km/h (1 Bft)
04/11/2007 21:00 12,1 C 89 % 1016,9 hPa 0,0 l/m 4,5 km/h (1 Bft) O-NO 0,00 h 0,025 mm 0 W/m 10,3 C 12,1 C 6,9 km/h (2 Bft)
04/11/2007 22:00 11,7 C 86 % 1016,9 hPa 0,0 l/m 3,6 km/h (1 Bft) NO 0,00 h 0,025 mm 0 W/m 9,4 C 11,7 C 5,9 km/h (2 Bft)
04/11/2007 23:00 11,9 C 76 % 1017,1 hPa 0,0 l/m 4,6 km/h (1 Bft) O-NO 0,00 h 0,025 mm 0 W/m 7,8 C 11,9 C 6,8 km/h (2 Bft)
Min-Date _ 02/11/07 03/11/07 30/10/07 - 29/10/07 - - - - 02/11/07 02/11/07 29/10/07
_ Min-Heure 06:37 11:28 16:45 - 00:02 - - - - 06:31 06:39 00:02
Minimum _ 9,6 C 31 % 1004,9 hPa - 0,0 km/h (0 Bft) - - - - 1,7 C 8,2 C 0,0 km/h (0 Bft)
Max-Date _ 02/11/07 31/10/07 02/11/07 31/10/07 29/10/07 - 29/10/07 02/11/07 30/10/07 29/10/07 02/11/07 01/11/07
_ Max-Heure 13:27 05:52 09:45 00:11 13:51 - 07:13 14:00 13:49 16:41 13:27 20:28
Maximum _ 20,6 C 92 % 1024,2 hPa 0,2 l/m 19,3 km/h
E (3 Bft)
- 0,02 h 0,381 mm 621 W/m 13,5 C 20,6 C 27,4 km/h
O-NO (4 Bft)
Moyenne _ 14,7 C 65 % 1016,3 hPa #0,4 l/m 4,7 km/h (1 Bft) O-NO #46:27 h #15,917 mm 229 W/m 7,9 C 14,7 C 7,0 km/h (2 Bft)
Roquefort les pins